Time;durP1;ratioP1;P1;durP2;ratioP2;P2;SDS_P1;SDS_P2;PMS_P1;PMS_P2;Temp;Humidity;BMP_temperature;BMP_pressure;BME280_temperature;BME280_humidity;BME280_pressure;Samples;Min_cycle;Max_cycle;Signal;HPM_P1;HPM_P2
2024/02/24 00:00:47;;;;;;;2.70;0.83;;;;;;;;;;5023869;28;20199;-78
2024/02/24 00:03:13;;;;;;;2.20;0.80;;;;;;;;;;5023029;28;20197;-78
2024/02/24 00:05:39;;;;;;;1.93;0.80;;;;;;;;;;5028764;28;20513;-78
2024/02/24 00:08:05;;;;;;;5.40;1.00;;;;;;;;;;5029651;28;20265;-79
2024/02/24 00:10:31;;;;;;;2.30;0.73;;;;;;;;;;5054061;28;20645;-77
2024/02/24 00:12:56;;;;;;;4.00;1.00;;;;;;;;;;5037598;28;20328;-77
2024/02/24 00:15:22;;;;;;;3.83;0.90;;;;;;;;;;5040230;28;20186;-78
2024/02/24 00:17:47;;;;;;;2.53;0.80;;;;;;;;;;5033301;28;20236;-78
2024/02/24 00:20:12;;;;;;;2.40;1.00;;;;;;;;;;5034512;28;20275;-78
2024/02/24 00:22:38;;;;;;;4.17;0.80;;;;;;;;;;5026645;28;20244;-78
2024/02/24 00:25:04;;;;;;;3.47;0.93;;;;;;;;;;5031176;28;20221;-77
2024/02/24 00:27:30;;;;;;;3.00;1.03;;;;;;;;;;5030733;28;20182;-78
2024/02/24 00:29:55;;;;;;;2.40;1.20;;;;;;;;;;5006785;28;20187;-78
2024/02/24 00:32:21;;;;;;;1.57;0.80;;;;;;;;;;5034794;28;20269;-78
2024/02/24 00:34:46;;;;;;;4.13;0.90;;;;;;;;;;5042241;28;20213;-78
2024/02/24 00:37:12;;;;;;;5.30;1.00;;;;;;;;;;5039639;28;20190;-78
2024/02/24 00:39:37;;;;;;;2.33;0.77;;;;;;;;;;5027575;28;20197;-78
2024/02/24 00:42:03;;;;;;;3.00;0.90;;;;;;;;;;5030776;28;20630;-78
2024/02/24 00:44:32;;;;;;;1.63;0.87;;;;;;;;;;5014282;28;20190;-79
2024/02/24 00:46:58;;;;;;;2.13;0.90;;;;;;;;;;5036658;28;20266;-78
2024/02/24 00:49:23;;;;;;;2.73;0.90;;;;;;;;;;5036689;28;20190;-79
2024/02/24 00:51:49;;;;;;;2.17;1.00;;;;;;;;;;5033858;28;20249;-78
2024/02/24 00:54:15;;;;;;;3.37;1.03;;;;;;;;;;5041447;28;20263;-78
2024/02/24 00:56:40;;;;;;;2.47;1.17;;;;;;;;;;5033804;28;20197;-79
2024/02/24 00:59:06;;;;;;;4.97;1.20;;;;;;;;;;5035348;28;20201;-79
2024/02/24 01:01:31;;;;;;;3.07;1.00;;;;;;;;;;5042257;28;20186;-78
2024/02/24 01:03:57;;;;;;;3.80;1.07;;;;;;;;;;5036327;28;20269;-77
2024/02/24 01:06:23;;;;;;;3.43;0.97;;;;;;;;;;5045944;28;20346;-78
2024/02/24 01:08:48;;;;;;;2.50;1.10;;;;;;;;;;5034218;28;20296;-79
2024/02/24 01:11:15;;;;;;;3.67;1.10;;;;;;;;;;5050234;28;20190;-78
2024/02/24 01:13:42;;;;;;;3.27;1.10;;;;;;;;;;5045764;28;20278;-80
2024/02/24 01:16:09;;;;;;;2.37;1.13;;;;;;;;;;5050365;28;20182;-78
2024/02/24 01:18:34;;;;;;;2.07;1.00;;;;;;;;;;5038067;28;20303;-79
2024/02/24 01:21:02;;;;;;;2.10;1.27;;;;;;;;;;5032325;28;20190;-79
2024/02/24 01:23:27;;;;;;;4.07;1.53;;;;;;;;;;5031568;28;20186;-79
2024/02/24 01:25:53;;;;;;;5.23;1.30;;;;;;;;;;5031273;28;20186;-78
2024/02/24 01:28:20;;;;;;;3.33;1.70;;;;;;;;;;5033422;28;20186;-78
2024/02/24 01:30:45;;;;;;;3.57;1.47;;;;;;;;;;5018736;28;20273;-78
2024/02/24 01:33:11;;;;;;;4.80;1.23;;;;;;;;;;5029532;28;20733;-78
2024/02/24 01:35:36;;;;;;;3.63;1.50;;;;;;;;;;5033390;28;20229;-78
2024/02/24 01:38:04;;;;;;;2.67;1.40;;;;;;;;;;5009988;28;20225;-79
2024/02/24 01:40:30;;;;;;;5.47;1.77;;;;;;;;;;5007163;28;20212;-78
2024/02/24 01:42:57;;;;;;;3.80;1.90;;;;;;;;;;5018900;28;20269;-78
2024/02/24 01:45:23;;;;;;;2.07;1.60;;;;;;;;;;5001381;28;20320;-79
2024/02/24 01:47:50;;;;;;;2.53;1.27;;;;;;;;;;5031742;28;20238;-78
2024/02/24 01:50:16;;;;;;;2.23;1.13;;;;;;;;;;5024167;28;20666;-78
2024/02/24 01:52:47;;;;;;;3.40;1.10;;;;;;;;;;5028283;28;20208;-77
2024/02/24 01:55:13;;;;;;;2.80;1.33;;;;;;;;;;5044549;28;20186;-78
2024/02/24 01:57:43;;;;;;;1.93;0.90;;;;;;;;;;4994682;28;20253;-78
2024/02/24 02:00:10;;;;;;;5.73;1.23;;;;;;;;;;5021308;28;20181;-77
2024/02/24 02:02:40;;;;;;;4.67;1.30;;;;;;;;;;5029928;28;20189;-78
2024/02/24 02:05:07;;;;;;;3.00;1.07;;;;;;;;;;5017721;28;20232;-77
2024/02/24 02:07:34;;;;;;;3.57;1.10;;;;;;;;;;5026349;28;20181;-77
2024/02/24 02:10:00;;;;;;;6.27;1.40;;;;;;;;;;5048913;28;20241;-79
2024/02/24 02:12:27;;;;;;;2.47;1.20;;;;;;;;;;5004752;28;20207;-76
2024/02/24 02:14:53;;;;;;;4.87;1.50;;;;;;;;;;5039848;28;20273;-78
2024/02/24 02:17:19;;;;;;;4.73;1.37;;;;;;;;;;5029831;28;20256;-78
2024/02/24 02:19:45;;;;;;;4.00;1.30;;;;;;;;;;5034726;28;20226;-78
2024/02/24 02:22:14;;;;;;;4.40;1.23;;;;;;;;;;5026992;28;20332;-76
2024/02/24 02:24:40;;;;;;;3.53;1.30;;;;;;;;;;5032744;28;20676;-77
2024/02/24 02:27:06;;;;;;;2.63;1.30;;;;;;;;;;5029055;28;20174;-77
2024/02/24 02:29:35;;;;;;;2.87;1.50;;;;;;;;;;5044587;28;20212;-76
2024/02/24 02:32:01;;;;;;;2.97;1.17;;;;;;;;;;5016717;28;20212;-76
2024/02/24 02:34:27;;;;;;;3.80;1.37;;;;;;;;;;5026612;28;20190;-76
2024/02/24 02:36:52;;;;;;;3.43;1.53;;;;;;;;;;5026995;28;20197;-77
2024/02/24 02:39:18;;;;;;;2.03;1.00;;;;;;;;;;5013683;28;20675;-77
2024/02/24 02:41:44;;;;;;;1.87;1.20;;;;;;;;;;4999511;28;20198;-77
2024/02/24 02:44:10;;;;;;;3.03;1.27;;;;;;;;;;5021155;28;20178;-77
2024/02/24 02:46:36;;;;;;;6.83;1.70;;;;;;;;;;4999014;28;20513;-77
2024/02/24 02:49:01;;;;;;;2.80;1.30;;;;;;;;;;5028430;28;20186;-77
2024/02/24 02:51:27;;;;;;;2.73;1.30;;;;;;;;;;5011660;28;20578;-77
2024/02/24 02:53:53;;;;;;;3.27;1.27;;;;;;;;;;5018009;28;20213;-77
2024/02/24 02:56:20;;;;;;;2.37;1.23;;;;;;;;;;5030529;28;20303;-77
2024/02/24 02:58:47;;;;;;;3.57;1.73;;;;;;;;;;5025069;28;20178;-77
2024/02/24 03:01:13;;;;;;;3.33;1.60;;;;;;;;;;5009404;28;20181;-77
2024/02/24 03:03:39;;;;;;;2.00;1.23;;;;;;;;;;5026721;28;20269;-77
2024/02/24 03:06:07;;;;;;;2.80;1.37;;;;;;;;;;5026424;28;20230;-77
2024/02/24 03:08:33;;;;;;;2.87;1.60;;;;;;;;;;5031929;28;20603;-77
2024/02/24 03:11:01;;;;;;;4.27;1.50;;;;;;;;;;5036873;28;20181;-77
2024/02/24 03:13:26;;;;;;;4.63;1.47;;;;;;;;;;5014599;28;20214;-77
2024/02/24 03:15:52;;;;;;;3.53;1.40;;;;;;;;;;5019842;28;20382;-78
2024/02/24 03:18:17;;;;;;;6.33;1.87;;;;;;;;;;5036129;28;20236;-77
2024/02/24 03:20:43;;;;;;;6.37;1.60;;;;;;;;;;5031119;28;20182;-77
2024/02/24 03:23:09;;;;;;;2.23;1.40;;;;;;;;;;5019152;28;20171;-77
2024/02/24 03:25:36;;;;;;;2.23;1.60;;;;;;;;;;5002447;28;20581;-77
2024/02/24 03:28:05;;;;;;;3.30;1.63;;;;;;;;;;5022405;28;20190;-77
2024/02/24 03:30:31;;;;;;;4.83;1.57;;;;;;;;;;5016887;28;20203;-76
2024/02/24 03:32:56;;;;;;;3.03;1.50;;;;;;;;;;5027179;28;20228;-78
2024/02/24 03:35:21;;;;;;;5.70;1.90;;;;;;;;;;5020275;28;20252;-77
2024/02/24 03:37:51;;;;;;;5.97;1.73;;;;;;;;;;5027438;28;20232;-77
2024/02/24 03:40:16;;;;;;;3.87;1.53;;;;;;;;;;5023080;28;20193;-77
2024/02/24 03:42:42;;;;;;;2.77;1.77;;;;;;;;;;5028884;28;20272;-77
2024/02/24 03:45:08;;;;;;;3.07;1.87;;;;;;;;;;5019229;28;20193;-77
2024/02/24 03:47:33;;;;;;;4.90;2.07;;;;;;;;;;5030327;28;20737;-77
2024/02/24 03:49:59;;;;;;;4.83;2.00;;;;;;;;;;5037223;28;20272;-77
2024/02/24 03:52:25;;;;;;;4.77;2.30;;;;;;;;;;5011622;28;20222;-77
2024/02/24 03:54:50;;;;;;;6.50;2.20;;;;;;;;;;5029203;28;20190;-77
2024/02/24 03:57:16;;;;;;;2.43;1.77;;;;;;;;;;5037880;28;20200;-77
2024/02/24 03:59:41;;;;;;;5.00;1.93;;;;;;;;;;5021689;28;20202;-77
2024/02/24 04:02:09;;;;;;;5.03;2.00;;;;;;;;;;5017031;28;20563;-77
2024/02/24 04:04:34;;;;;;;3.73;2.03;;;;;;;;;;5021846;28;20194;-77
2024/02/24 04:07:00;;;;;;;4.17;1.90;;;;;;;;;;5040825;28;20196;-77
2024/02/24 04:09:25;;;;;;;4.97;2.00;;;;;;;;;;5030615;28;20182;-77
2024/02/24 04:11:52;;;;;;;2.90;1.63;;;;;;;;;;5026841;28;20198;-77
2024/02/24 04:14:18;;;;;;;7.37;2.17;;;;;;;;;;5034760;28;20601;-77
2024/02/24 04:16:43;;;;;;;5.03;2.00;;;;;;;;;;5006899;28;20277;-77
2024/02/24 04:19:09;;;;;;;4.20;2.20;;;;;;;;;;5028462;28;20242;-77
2024/02/24 04:21:35;;;;;;;3.13;2.10;;;;;;;;;;5035339;28;20649;-77
2024/02/24 04:24:01;;;;;;;5.30;2.50;;;;;;;;;;5038004;28;20263;-77
2024/02/24 04:26:26;;;;;;;3.30;2.17;;;;;;;;;;5047576;28;20656;-77
2024/02/24 04:28:52;;;;;;;6.63;2.47;;;;;;;;;;5030142;28;20276;-77
2024/02/24 04:31:17;;;;;;;5.87;2.23;;;;;;;;;;5040520;28;20197;-77
2024/02/24 04:33:43;;;;;;;4.50;2.20;;;;;;;;;;5031269;28;20673;-77
2024/02/24 04:36:09;;;;;;;5.47;2.40;;;;;;;;;;5042931;28;20179;-77
2024/02/24 04:38:35;;;;;;;6.40;2.40;;;;;;;;;;5045668;28;20223;-77
2024/02/24 04:41:00;;;;;;;4.27;2.20;;;;;;;;;;5036478;28;20217;-77
2024/02/24 04:43:26;;;;;;;3.53;2.40;;;;;;;;;;5032547;28;20194;-77
2024/02/24 04:45:51;;;;;;;4.60;2.60;;;;;;;;;;5033368;28;20244;-77
2024/02/24 04:48:17;;;;;;;6.37;2.77;;;;;;;;;;5036152;28;20265;-77
2024/02/24 04:50:42;;;;;;;5.87;2.63;;;;;;;;;;5030860;28;20475;-77
2024/02/24 04:53:08;;;;;;;4.40;2.73;;;;;;;;;;5025171;28;20199;-77
2024/02/24 04:55:34;;;;;;;4.57;3.00;;;;;;;;;;5027880;28;20178;-78
2024/02/24 04:57:59;;;;;;;6.87;3.07;;;;;;;;;;5014591;28;20205;-77
2024/02/24 05:00:25;;;;;;;5.33;3.40;;;;;;;;;;5037283;28;20185;-77
2024/02/24 05:02:50;;;;;;;6.57;3.33;;;;;;;;;;5027153;28;20563;-77
2024/02/24 05:05:16;;;;;;;7.87;3.70;;;;;;;;;;5037351;28;20185;-77
2024/02/24 05:07:42;;;;;;;8.00;4.30;;;;;;;;;;5041021;28;20201;-77
2024/02/24 05:10:08;;;;;;;7.07;3.93;;;;;;;;;;5039091;28;20257;-77
2024/02/24 05:12:34;;;;;;;8.63;4.43;;;;;;;;;;5030253;28;20308;-77
2024/02/24 05:15:00;;;;;;;8.73;4.80;;;;;;;;;;5015637;28;20709;-77
2024/02/24 05:17:25;;;;;;;9.77;4.50;;;;;;;;;;5027481;28;20273;-77
2024/02/24 05:19:51;;;;;;;11.70;4.90;;;;;;;;;;5031882;28;20257;-77
2024/02/24 05:22:17;;;;;;;6.20;4.33;;;;;;;;;;5034996;28;20269;-77
2024/02/24 05:24:43;;;;;;;9.23;4.90;;;;;;;;;;5035309;28;20190;-77
2024/02/24 05:27:08;;;;;;;8.97;5.27;;;;;;;;;;5018501;28;20205;-78
2024/02/24 05:29:34;;;;;;;7.00;4.27;;;;;;;;;;5014132;28;20197;-78
2024/02/24 05:32:00;;;;;;;7.57;4.47;;;;;;;;;;5009052;28;20181;-77
2024/02/24 05:34:25;;;;;;;9.17;4.50;;;;;;;;;;5025822;28;20186;-77
2024/02/24 05:36:51;;;;;;;5.07;4.17;;;;;;;;;;5012723;28;20205;-76
2024/02/24 05:39:16;;;;;;;6.00;4.80;;;;;;;;;;5018214;28;20205;-77
2024/02/24 05:41:42;;;;;;;7.97;4.50;;;;;;;;;;5016081;28;20201;-77
2024/02/24 05:44:07;;;;;;;6.83;3.83;;;;;;;;;;5030773;28;20187;-77
2024/02/24 05:46:33;;;;;;;9.77;4.30;;;;;;;;;;5038403;28;20197;-77
2024/02/24 05:48:59;;;;;;;6.33;4.37;;;;;;;;;;5033495;28;20273;-76
2024/02/24 05:51:25;;;;;;;7.53;4.20;;;;;;;;;;5037604;28;20223;-77
2024/02/24 05:53:50;;;;;;;6.17;3.80;;;;;;;;;;5042054;28;20201;-76
2024/02/24 05:56:16;;;;;;;5.67;4.07;;;;;;;;;;5031235;28;20696;-78
2024/02/24 05:58:42;;;;;;;10.00;4.63;;;;;;;;;;5022847;28;20553;-76
2024/02/24 06:01:07;;;;;;;7.33;4.20;;;;;;;;;;5019205;28;20556;-77
2024/02/24 06:03:32;;;;;;;6.43;4.93;;;;;;;;;;5031770;28;20229;-77
2024/02/24 06:05:58;;;;;;;5.40;3.87;;;;;;;;;;5042752;28;20181;-77
2024/02/24 06:08:24;;;;;;;7.03;3.93;;;;;;;;;;5031807;28;20189;-77
2024/02/24 06:10:49;;;;;;;8.23;4.33;;;;;;;;;;5031007;28;20198;-77
2024/02/24 06:13:14;;;;;;;7.80;4.10;;;;;;;;;;5024538;28;20210;-78
2024/02/24 06:15:40;;;;;;;4.43;3.77;;;;;;;;;;5018237;28;20197;-78
2024/02/24 06:18:06;;;;;;;8.40;4.10;;;;;;;;;;5025566;28;20273;-78
2024/02/24 06:20:32;;;;;;;9.77;5.03;;;;;;;;;;5039675;28;20280;-78
2024/02/24 06:22:57;;;;;;;6.63;4.37;;;;;;;;;;5000231;28;20514;-78
2024/02/24 06:25:23;;;;;;;6.00;4.67;;;;;;;;;;5039901;28;20201;-78
2024/02/24 06:27:48;;;;;;;7.17;4.90;;;;;;;;;;5032914;28;20197;-77
2024/02/24 06:30:14;;;;;;;8.93;4.67;;;;;;;;;;5036535;28;20541;-77
2024/02/24 06:32:40;;;;;;;6.97;4.43;;;;;;;;;;5024453;28;20711;-78
2024/02/24 06:35:06;;;;;;;8.03;4.37;;;;;;;;;;5022772;28;20193;-78
2024/02/24 06:37:31;;;;;;;7.60;4.80;;;;;;;;;;5014041;28;20649;-78
2024/02/24 06:39:57;;;;;;;8.83;4.80;;;;;;;;;;5029430;28;20543;-77
2024/02/24 06:42:22;;;;;;;6.57;4.40;;;;;;;;;;5043691;28;20186;-77
2024/02/24 06:44:48;;;;;;;6.57;4.70;;;;;;;;;;5042429;28;20211;-78
2024/02/24 06:47:14;;;;;;;8.43;4.53;;;;;;;;;;5041904;28;20490;-78
2024/02/24 06:49:39;;;;;;;5.87;3.90;;;;;;;;;;5028650;28;20597;-78
2024/02/24 06:52:05;;;;;;;8.13;4.30;;;;;;;;;;5039655;28;20277;-78
2024/02/24 06:54:31;;;;;;;7.57;4.07;;;;;;;;;;5051754;28;20185;-78
2024/02/24 06:56:57;;;;;;;6.23;3.67;;;;;;;;;;5038088;28;20185;-77
2024/02/24 06:59:22;;;;;;;6.90;3.90;;;;;;;;;;5029278;28;20272;-78
2024/02/24 07:01:48;;;;;;;6.00;4.07;;;;;;;;;;5038262;28;20268;-78
2024/02/24 07:04:14;;;;;;;7.30;4.43;;;;;;;;;;5049198;28;20672;-78
2024/02/24 07:06:40;;;;;;;9.50;4.20;;;;;;;;;;5046040;28;20181;-78
2024/02/24 07:09:06;;;;;;;6.43;4.20;;;;;;;;;;5024910;28;20265;-78
2024/02/24 07:11:31;;;;;;;5.30;4.00;;;;;;;;;;5031606;28;20675;-78
2024/02/24 07:13:57;;;;;;;5.40;3.50;;;;;;;;;;5047505;28;20222;-78
2024/02/24 07:16:22;;;;;;;6.53;4.00;;;;;;;;;;5029213;28;20186;-78
2024/02/24 07:18:48;;;;;;;7.10;3.70;;;;;;;;;;5026304;28;20297;-78
2024/02/24 07:21:13;;;;;;;5.90;3.60;;;;;;;;;;5032061;28;20187;-78
2024/02/24 07:23:39;;;;;;;5.32;3.42;;;;;;;;;;5051188;28;20190;-78
2024/02/24 07:26:07;;;;;;;4.43;3.40;;;;;;;;;;5048955;28;20247;-78
2024/02/24 07:28:33;;;;;;;5.13;3.90;;;;;;;;;;5043580;28;20195;-78
2024/02/24 07:30:58;;;;;;;3.92;3.42;;;;;;;;;;5046161;28;20360;-77
2024/02/24 07:33:24;;;;;;;5.80;3.60;;;;;;;;;;5035891;28;20649;-77
2024/02/24 07:35:49;;;;;;;6.15;3.53;;;;;;;;;;5038669;28;20174;-77
2024/02/24 07:38:15;;;;;;;4.82;3.35;;;;;;;;;;5033476;28;20195;-77
2024/02/24 07:40:41;;;;;;;7.18;3.67;;;;;;;;;;5000924;28;20333;-77
2024/02/24 07:43:07;;;;;;;5.80;3.77;;;;;;;;;;5039294;28;20193;-77
2024/02/24 07:45:33;;;;;;;4.53;3.70;;;;;;;;;;5037042;28;20201;-76
2024/02/24 07:47:58;;;;;;;4.03;2.97;;;;;;;;;;5042449;28;20178;-77
2024/02/24 07:50:24;;;;;;;4.30;3.33;;;;;;;;;;5037512;28;20550;-77
2024/02/24 07:52:49;;;;;;;6.40;3.27;;;;;;;;;;5020177;28;20255;-77
2024/02/24 07:55:15;;;;;;;3.73;3.33;;;;;;;;;;5033959;28;20869;-78
2024/02/24 07:57:42;;;;;;;4.43;3.33;;;;;;;;;;5044491;28;20597;-78
2024/02/24 08:00:09;;;;;;;4.13;3.10;;;;;;;;;;5034836;28;20482;-77
2024/02/24 08:02:36;;;;;;;5.93;3.10;;;;;;;;;;5026813;28;20174;-78
2024/02/24 08:05:02;;;;;;;5.00;3.30;;;;;;;;;;5026514;28;20556;-78
2024/02/24 08:07:28;;;;;;;3.87;3.43;;;;;;;;;;5032235;28;20199;-78
2024/02/24 08:09:54;;;;;;;6.30;3.83;;;;;;;;;;5034639;28;20193;-78
2024/02/24 08:12:19;;;;;;;4.73;3.47;;;;;;;;;;5038076;28;20256;-78
2024/02/24 08:14:45;;;;;;;3.90;2.87;;;;;;;;;;5038398;28;20653;-78
2024/02/24 08:17:13;;;;;;;5.40;3.40;;;;;;;;;;5030169;28;20193;-78
2024/02/24 08:19:44;;;;;;;4.33;3.20;;;;;;;;;;5018971;28;20701;-78
2024/02/24 08:22:09;;;;;;;5.20;3.60;;;;;;;;;;5033958;28;20645;-78
2024/02/24 08:24:35;;;;;;;7.37;2.80;;;;;;;;;;5035364;28;20185;-78
2024/02/24 08:27:01;;;;;;;3.37;2.60;;;;;;;;;;5015579;28;20188;-78
2024/02/24 08:29:26;;;;;;;4.00;2.60;;;;;;;;;;5033765;28;20645;-78
2024/02/24 08:31:52;;;;;;;4.70;2.80;;;;;;;;;;5022918;28;20284;-78
2024/02/24 08:34:18;;;;;;;2.83;2.37;;;;;;;;;;5034104;28;20269;-78
2024/02/24 08:36:44;;;;;;;3.78;2.70;;;;;;;;;;5021950;28;20197;-78
2024/02/24 08:39:09;;;;;;;4.40;2.80;;;;;;;;;;5042081;28;20273;-78
2024/02/24 08:41:36;;;;;;;3.87;2.60;;;;;;;;;;5011601;28;20235;-78
2024/02/24 08:44:05;;;;;;;5.00;2.80;;;;;;;;;;5011598;28;20182;-79
2024/02/24 08:46:31;;;;;;;3.10;2.40;;;;;;;;;;5026251;28;20197;-78
2024/02/24 08:48:57;;;;;;;3.25;2.15;;;;;;;;;;5028850;28;20193;-78
2024/02/24 08:51:24;;;;;;;4.07;2.20;;;;;;;;;;5006351;28;20503;-79
2024/02/24 08:53:49;;;;;;;4.47;2.30;;;;;;;;;;5026182;28;20217;-79
2024/02/24 08:56:19;;;;;;;4.13;2.30;;;;;;;;;;5017984;28;20247;-78
2024/02/24 08:58:45;;;;;;;3.53;1.98;;;;;;;;;;5035905;28;20260;-79
2024/02/24 09:01:12;;;;;;;8.35;1.98;;;;;;;;;;5030419;28;20259;-80
2024/02/24 09:03:37;;;;;;;3.58;1.88;;;;;;;;;;5020433;28;20190;-80
2024/02/24 09:06:03;;;;;;;1.73;1.25;;;;;;;;;;5036567;28;20641;-80
2024/02/24 09:08:29;;;;;;;2.78;1.65;;;;;;;;;;5041469;28;20248;-79
2024/02/24 09:10:54;;;;;;;2.90;1.80;;;;;;;;;;5038490;28;20618;-79
2024/02/24 09:13:20;;;;;;;3.17;1.60;;;;;;;;;;5029288;28;20219;-79
2024/02/24 09:15:45;;;;;;;2.13;1.70;;;;;;;;;;5039006;28;20268;-79
2024/02/24 09:18:10;;;;;;;2.50;2.10;;;;;;;;;;5038564;28;20245;-80
2024/02/24 09:20:36;;;;;;;2.78;1.80;;;;;;;;;;5035946;28;20285;-79
2024/02/24 09:23:02;;;;;;;2.97;1.60;;;;;;;;;;5028961;28;20281;-79
2024/02/24 09:25:28;;;;;;;3.60;1.60;;;;;;;;;;5032134;28;20213;-79
2024/02/24 09:27:54;;;;;;;2.53;1.60;;;;;;;;;;5030587;28;20200;-79
2024/02/24 09:30:20;;;;;;;2.92;1.70;;;;;;;;;;5039969;28;20198;-80
2024/02/24 09:32:45;;;;;;;4.35;1.80;;;;;;;;;;5030246;28;20547;-79
2024/02/24 09:35:10;;;;;;;2.13;1.60;;;;;;;;;;5035724;28;20198;-79
2024/02/24 09:37:36;;;;;;;4.28;1.52;;;;;;;;;;5040660;28;20185;-78
2024/02/24 09:40:05;;;;;;;2.20;1.52;;;;;;;;;;5032572;28;20613;-78
2024/02/24 09:42:30;;;;;;;2.35;1.55;;;;;;;;;;5016674;28;20479;-79
2024/02/24 09:44:58;;;;;;;2.17;1.50;;;;;;;;;;5043058;28;20605;-79
2024/02/24 09:47:25;;;;;;;4.45;1.45;;;;;;;;;;5037330;28;20624;-79
2024/02/24 09:49:52;;;;;;;2.42;1.40;;;;;;;;;;5036825;28;20186;-79
2024/02/24 09:52:17;;;;;;;3.22;1.60;;;;;;;;;;5038199;28;20523;-78
2024/02/24 09:54:43;;;;;;;2.75;1.63;;;;;;;;;;5029011;28;20390;-79
2024/02/24 09:57:13;;;;;;;2.72;1.48;;;;;;;;;;5033563;28;20182;-79
2024/02/24 09:59:38;;;;;;;3.45;1.95;;;;;;;;;;5015452;28;20193;-79
2024/02/24 10:02:04;;;;;;;2.50;1.40;;;;;;;;;;5032175;28;20190;-79
2024/02/24 10:04:29;;;;;;;4.05;1.73;;;;;;;;;;5033142;28;20220;-78
2024/02/24 10:06:55;;;;;;;2.00;1.40;;;;;;;;;;5024952;28;20203;-79
2024/02/24 10:09:20;;;;;;;4.32;1.95;;;;;;;;;;5041644;28;20250;-79
2024/02/24 10:11:47;;;;;;;3.10;1.70;;;;;;;;;;5035022;28;20236;-79
2024/02/24 10:14:12;;;;;;;3.60;1.75;;;;;;;;;;5040237;28;20226;-78
2024/02/24 10:16:38;;;;;;;3.65;1.58;;;;;;;;;;5045691;28;20548;-79
2024/02/24 10:19:07;;;;;;;4.55;1.67;;;;;;;;;;5021295;28;20230;-79
2024/02/24 10:21:33;;;;;;;3.80;1.48;;;;;;;;;;5018205;28;20610;-78
2024/02/24 10:23:59;;;;;;;1.92;1.30;;;;;;;;;;5013970;28;20202;-78
2024/02/24 10:26:26;;;;;;;3.22;1.25;;;;;;;;;;5031727;28;20294;-79
2024/02/24 10:28:53;;;;;;;1.52;1.42;;;;;;;;;;5016170;28;20419;-78
2024/02/24 10:31:20;;;;;;;3.72;2.53;;;;;;;;;;5039560;28;20549;-78
2024/02/24 10:33:47;;;;;;;6.10;2.83;;;;;;;;;;5046367;28;20237;-78
2024/02/24 10:36:14;;;;;;;4.53;3.08;;;;;;;;;;5038686;28;20187;-79
2024/02/24 10:38:40;;;;;;;4.57;3.00;;;;;;;;;;5036650;28;20264;-79
2024/02/24 10:41:10;;;;;;;4.07;2.30;;;;;;;;;;5040069;28;20201;-79
2024/02/24 10:43:37;;;;;;;5.50;1.95;;;;;;;;;;5041693;28;20199;-79
2024/02/24 10:46:03;;;;;;;2.15;1.65;;;;;;;;;;5037439;28;20234;-79
2024/02/24 10:48:28;;;;;;;3.58;1.40;;;;;;;;;;5039435;28;20224;-79
2024/02/24 10:50:54;;;;;;;2.80;1.60;;;;;;;;;;5037270;28;20198;-77
2024/02/24 10:53:27;;;;;;;2.45;1.38;;;;;;;;;;5051067;28;20236;-79
2024/02/24 10:55:54;;;;;;;2.75;1.15;;;;;;;;;;5042721;28;20197;-79
2024/02/24 10:58:22;;;;;;;1.80;1.13;;;;;;;;;;5035884;28;20194;-79
2024/02/24 11:00:50;;;;;;;1.00;0.70;;;;;;;;;;5023511;28;20200;-79
2024/02/24 11:03:19;;;;;;;1.45;1.10;;;;;;;;;;5031255;28;20201;-80
2024/02/24 11:05:51;;;;;;;3.17;1.40;;;;;;;;;;5036506;28;20251;-79
2024/02/24 11:08:36;;;;;;;3.33;1.10;;;;;;;;;;5043062;28;20279;-78
2024/02/24 11:11:08;;;;;;;3.65;1.17;;;;;;;;;;5036418;28;20580;-79
2024/02/24 11:13:33;;;;;;;1.45;1.20;;;;;;;;;;5033811;28;20689;-79
2024/02/24 11:15:59;;;;;;;3.00;1.30;;;;;;;;;;5031680;28;20265;-80
2024/02/24 11:18:57;;;;;;;3.83;1.55;;;;;;;;;;5041551;28;20233;-79
2024/02/24 11:22:02;;;;;;;3.38;1.30;;;;;;;;;;5027021;28;20210;-80
2024/02/24 11:24:36;;;;;;;1.98;1.48;;;;;;;;;;5036982;28;20200;-80
2024/02/24 11:27:03;;;;;;;1.38;1.27;;;;;;;;;;5034289;28;20185;-81
2024/02/24 11:29:29;;;;;;;2.78;1.55;;;;;;;;;;5028657;28;20182;-81
2024/02/24 11:32:14;;;;;;;1.85;1.42;;;;;;;;;;5023919;28;20177;-81
2024/02/24 11:34:42;;;;;;;3.88;1.10;;;;;;;;;;5020983;28;20664;-81
2024/02/24 11:37:09;;;;;;;0.80;0.77;;;;;;;;;;5046038;28;20181;-82
2024/02/24 11:39:39;;;;;;;0.82;0.55;;;;;;;;;;5041943;28;20186;-80
2024/02/24 11:42:05;;;;;;;1.88;0.50;;;;;;;;;;5036673;28;20661;-79
2024/02/24 11:44:31;;;;;;;2.25;0.80;;;;;;;;;;5040350;28;20272;-79
2024/02/24 11:46:58;;;;;;;1.73;0.98;;;;;;;;;;5044698;28;20200;-80
2024/02/24 11:49:24;;;;;;;1.08;0.98;;;;;;;;;;5038380;28;20205;-80
2024/02/24 11:51:51;;;;;;;1.58;1.27;;;;;;;;;;5034238;28;20598;-79
2024/02/24 11:54:17;;;;;;;1.95;1.33;;;;;;;;;;5022543;28;20261;-81
2024/02/24 11:56:43;;;;;;;3.55;1.67;;;;;;;;;;5037175;28;20190;-80
2024/02/24 11:59:09;;;;;;;1.90;1.70;;;;;;;;;;5040255;28;20265;-80
2024/02/24 12:01:37;;;;;;;2.85;1.52;;;;;;;;;;5027150;28;20293;-81
2024/02/24 12:04:03;;;;;;;3.40;2.00;;;;;;;;;;5036504;28;20670;-79
2024/02/24 12:06:30;;;;;;;2.25;1.73;;;;;;;;;;5042047;28;20179;-80
2024/02/24 12:08:57;;;;;;;2.45;1.92;;;;;;;;;;5037709;28;20689;-81
2024/02/24 12:11:27;;;;;;;3.20;1.40;;;;;;;;;;5049886;28;20186;-81
2024/02/24 12:13:52;;;;;;;4.05;1.85;;;;;;;;;;5042733;28;20209;-81
2024/02/24 12:16:19;;;;;;;3.05;2.00;;;;;;;;;;5040234;28;20188;-80
2024/02/24 12:18:45;;;;;;;3.75;2.42;;;;;;;;;;5048246;28;20308;-80
2024/02/24 12:21:11;;;;;;;2.78;2.00;;;;;;;;;;5045656;28;20194;-79
2024/02/24 12:23:39;;;;;;;4.68;2.25;;;;;;;;;;5050433;28;20182;-79
2024/02/24 12:26:11;;;;;;;2.55;2.20;;;;;;;;;;5037113;28;20195;-79
2024/02/24 12:28:39;;;;;;;2.80;2.17;;;;;;;;;;5047270;28;20202;-79
2024/02/24 12:31:08;;;;;;;3.22;2.20;;;;;;;;;;5046340;28;20267;-78
2024/02/24 12:33:36;;;;;;;2.55;1.95;;;;;;;;;;5028827;28;20597;-77
2024/02/24 12:36:06;;;;;;;3.63;2.33;;;;;;;;;;5035499;28;20609;-78
2024/02/24 12:38:31;;;;;;;2.97;1.88;;;;;;;;;;5012397;28;20353;-78
2024/02/24 12:40:57;;;;;;;3.95;2.10;;;;;;;;;;5032978;28;20404;-77
2024/02/24 12:43:23;;;;;;;3.08;2.25;;;;;;;;;;5031198;28;20290;-78
2024/02/24 12:45:51;;;;;;;2.55;2.30;;;;;;;;;;5038034;28;20200;-78
2024/02/24 12:48:17;;;;;;;2.17;1.80;;;;;;;;;;5037683;28;20220;-78
2024/02/24 12:50:45;;;;;;;3.10;2.30;;;;;;;;;;5015477;28;20194;-78
2024/02/24 12:53:10;;;;;;;2.85;2.20;;;;;;;;;;5037176;28;20305;-78
2024/02/24 12:55:36;;;;;;;2.53;2.17;;;;;;;;;;5036188;28;20221;-78
2024/02/24 12:58:02;;;;;;;2.88;1.90;;;;;;;;;;5029477;28;20190;-78
2024/02/24 13:00:27;;;;;;;2.75;2.03;;;;;;;;;;5036912;28;20265;-78
2024/02/24 13:02:55;;;;;;;3.10;1.73;;;;;;;;;;5037651;28;20654;-78
2024/02/24 13:05:21;;;;;;;2.80;1.80;;;;;;;;;;5018216;28;20186;-78
2024/02/24 13:07:46;;;;;;;4.95;2.35;;;;;;;;;;5038142;28;20269;-78
2024/02/24 13:10:12;;;;;;;2.40;1.80;;;;;;;;;;5034952;28;20200;-78
2024/02/24 13:12:38;;;;;;;2.95;2.00;;;;;;;;;;5040209;28;20218;-78
2024/02/24 13:15:04;;;;;;;2.53;2.03;;;;;;;;;;5026598;28;20549;-77
2024/02/24 13:17:29;;;;;;;4.53;2.35;;;;;;;;;;5036759;28;20186;-79
2024/02/24 13:19:55;;;;;;;1.75;1.30;;;;;;;;;;5015682;28;20241;-78
2024/02/24 13:22:20;;;;;;;1.23;0.82;;;;;;;;;;5027375;28;20214;-77
2024/02/24 13:24:46;;;;;;;2.08;0.95;;;;;;;;;;5007030;28;20661;-78
2024/02/24 13:27:12;;;;;;;2.45;1.08;;;;;;;;;;5032242;28;20216;-78
2024/02/24 13:29:37;;;;;;;1.20;1.10;;;;;;;;;;5018302;28;20190;-78
2024/02/24 13:32:03;;;;;;;3.97;1.27;;;;;;;;;;5044165;28;20268;-78
2024/02/24 13:34:29;;;;;;;2.35;1.23;;;;;;;;;;5018807;28;20218;-79
2024/02/24 13:36:55;;;;;;;2.10;1.23;;;;;;;;;;5031792;28;20189;-79
2024/02/24 13:39:20;;;;;;;2.83;1.50;;;;;;;;;;5019529;28;20243;-80
2024/02/24 13:41:46;;;;;;;2.60;1.42;;;;;;;;;;5043225;28;20190;-80
2024/02/24 13:44:12;;;;;;;3.30;1.60;;;;;;;;;;5032610;28;20190;-80
2024/02/24 13:46:40;;;;;;;2.58;1.67;;;;;;;;;;5018703;28;20190;-78
2024/02/24 13:49:06;;;;;;;4.28;1.90;;;;;;;;;;5013137;28;20214;-81
2024/02/24 13:51:32;;;;;;;3.65;1.70;;;;;;;;;;5028462;28;20246;-80
2024/02/24 13:53:58;;;;;;;1.88;1.60;;;;;;;;;;5045843;28;20213;-81
2024/02/24 13:56:24;;;;;;;2.85;1.50;;;;;;;;;;5037834;28;20190;-80
2024/02/24 13:58:50;;;;;;;2.58;1.70;;;;;;;;;;4668095;28;10000435;-80
2024/02/24 14:01:16;;;;;;;4.82;1.67;;;;;;;;;;5029334;28;20201;-81
2024/02/24 14:03:43;;;;;;;2.47;1.83;;;;;;;;;;5043709;28;20173;-80
2024/02/24 14:06:08;;;;;;;3.38;1.50;;;;;;;;;;5041579;28;20255;-81
2024/02/24 14:08:35;;;;;;;2.10;1.60;;;;;;;;;;5028615;28;20594;-79
2024/02/24 14:11:00;;;;;;;4.18;1.70;;;;;;;;;;5028612;28;20215;-80
2024/02/24 14:13:25;;;;;;;2.85;1.10;;;;;;;;;;5030399;28;20229;-80
2024/02/24 14:15:51;;;;;;;4.25;1.38;;;;;;;;;;5039612;28;20296;-80
2024/02/24 14:18:17;;;;;;;1.80;1.00;;;;;;;;;;5025593;28;20242;-79
2024/02/24 14:20:42;;;;;;;2.72;1.05;;;;;;;;;;5025344;28;20186;-80
2024/02/24 14:23:08;;;;;;;2.80;1.20;;;;;;;;;;5031922;28;20474;-80
2024/02/24 14:25:33;;;;;;;4.18;0.90;;;;;;;;;;5025368;28;20243;-80
2024/02/24 14:27:59;;;;;;;3.55;0.98;;;;;;;;;;5021710;28;20256;-79
2024/02/24 14:30:25;;;;;;;2.75;0.98;;;;;;;;;;5028149;28;20186;-79
2024/02/24 14:32:50;;;;;;;3.67;1.00;;;;;;;;;;5021064;28;20205;-80
2024/02/24 14:35:21;;;;;;;2.90;0.88;;;;;;;;;;5017391;28;20217;-78
2024/02/24 14:37:47;;;;;;;1.55;0.70;;;;;;;;;;5015208;28;20551;-78